Time;durP1;ratioP1;P1;durP2;ratioP2;P2;SDS_P1;SDS_P2;PMS_P1;PMS_P2;Temp;Humidity;BMP_temperature;BMP_pressure;BME280_temperature;BME280_humidity;BME280_pressure;Samples;Min_cycle;Max_cycle;Signal;HPM_P1;HPM_P2
2020/12/13 00:01:12;;;;;;;23.73;14.13;;;;;;;5.67;77.81;97855.22;5088764;28;20166;-80
2020/12/13 00:03:37;;;;;;;23.75;13.32;;;;;;;5.63;77.64;97860.25;5085420;28;20521;-77
2020/12/13 00:06:03;;;;;;;27.77;15.32;;;;;;;5.60;78.51;97855.50;5089626;28;20035;-78
2020/12/13 00:08:28;;;;;;;19.85;13.30;;;;;;;5.56;78.24;97865.84;5083192;28;20119;-78
2020/12/13 00:10:56;;;;;;;21.92;13.52;;;;;;;5.56;77.90;97868.50;5069876;28;20145;-78
2020/12/13 00:13:22;;;;;;;19.25;11.38;;;;;;;5.54;78.20;97868.00;5069768;28;20036;-78
2020/12/13 00:15:48;;;;;;;20.58;11.02;;;;;;;5.50;77.79;97863.50;5069388;28;20044;-78
2020/12/13 00:18:13;;;;;;;20.02;10.88;;;;;;;5.52;78.33;97864.03;5069968;28;20408;-79
2020/12/13 00:20:39;;;;;;;13.30;9.23;;;;;;;5.52;78.65;97864.81;5073000;28;20024;-79
2020/12/13 00:23:04;;;;;;;16.55;9.85;;;;;;;5.52;78.34;97864.81;5080019;28;20126;-79
2020/12/13 00:25:29;;;;;;;17.40;9.65;;;;;;;5.50;78.46;97866.94;5081249;28;20036;-76
2020/12/13 00:27:55;;;;;;;20.65;11.07;;;;;;;5.49;78.54;97865.34;5069699;28;20131;-76
2020/12/13 00:30:20;;;;;;;15.23;9.82;;;;;;;5.47;78.55;97872.78;5077379;28;20511;-78
2020/12/13 00:32:46;;;;;;;18.15;9.80;;;;;;;5.47;78.32;97878.09;5081813;28;20028;-83
2020/12/13 00:35:13;;;;;;;15.25;9.88;;;;;;;5.45;78.29;97881.00;5089642;28;20469;-82
2020/12/13 00:37:39;;;;;;;20.92;9.23;;;;;;;5.44;78.26;97890.03;5089001;28;20404;-83
2020/12/13 00:40:05;;;;;;;15.68;9.20;;;;;;;5.43;78.17;97890.28;5089663;28;20028;-82
2020/12/13 00:42:30;;;;;;;16.70;9.60;;;;;;;5.41;78.17;97887.13;5089051;28;20028;-83
2020/12/13 00:44:55;;;;;;;16.35;9.98;;;;;;;5.42;78.42;97896.66;5089374;28;20111;-85
2020/12/13 00:47:21;;;;;;;12.80;9.13;;;;;;;5.39;78.42;97890.03;5088511;28;20028;-84
2020/12/13 00:49:47;;;;;;;16.42;9.15;;;;;;;5.41;78.08;97892.44;5088957;28;20060;-84
2020/12/13 00:52:12;;;;;;;13.27;9.23;;;;;;;5.39;78.24;97892.69;5089445;28;20484;-85
2020/12/13 00:54:37;;;;;;;15.48;10.23;;;;;;;5.40;78.63;97904.88;5089080;28;20480;-86
2020/12/13 00:57:03;;;;;;;14.57;8.85;;;;;;;5.39;78.59;97899.88;5089549;28;20522;-86
2020/12/13 00:59:28;;;;;;;28.10;13.43;;;;;;;5.37;78.86;97889.53;5089366;28;20028;-86
2020/12/13 01:01:54;;;;;;;17.67;11.20;;;;;;;5.35;78.29;97883.69;5081784;28;20032;-87
2020/12/13 01:04:19;;;;;;;14.48;9.75;;;;;;;5.27;78.46;97889.53;5069480;28;20029;-82
2020/12/13 01:06:44;;;;;;;15.20;9.73;;;;;;;5.21;78.95;97880.84;5068914;28;20558;-82
2020/12/13 01:09:10;;;;;;;14.80;10.32;;;;;;;5.18;79.07;97869.97;5069228;28;20550;-84
2020/12/13 01:11:35;;;;;;;15.77;9.75;;;;;;;5.26;79.30;97890.59;5069083;28;20025;-85
2020/12/13 01:14:02;;;;;;;20.10;9.95;;;;;;;5.25;79.07;97895.13;5068974;28;20538;-83
2020/12/13 01:16:28;;;;;;;23.88;13.98;;;;;;;5.29;79.29;97914.72;5075553;28;20031;-86
2020/12/13 01:18:54;;;;;;;23.85;14.32;;;;;;;5.29;79.29;97901.47;5089184;28;20127;-86
2020/12/13 01:21:22;;;;;;;18.20;11.60;;;;;;;5.33;79.53;97906.25;5089131;28;20115;-86
2020/12/13 01:23:48;;;;;;;18.98;13.07;;;;;;;5.34;79.92;97911.28;5088949;28;20504;-88
2020/12/13 01:26:14;;;;;;;20.30;13.40;;;;;;;5.33;79.74;97893.78;5089669;28;20036;-83
2020/12/13 01:28:40;;;;;;;17.88;11.27;;;;;;;5.41;79.61;97898.53;5089328;28;20053;-84
2020/12/13 01:31:06;;;;;;;18.67;11.32;;;;;;;5.44;79.68;97894.53;5088330;28;20115;-82
2020/12/13 01:33:32;;;;;;;25.45;11.25;;;;;;;5.47;79.51;97886.06;5089297;28;20031;-84
2020/12/13 01:35:58;;;;;;;18.65;12.02;;;;;;;5.49;79.10;97897.16;5092784;28;20100;-81
2020/12/13 01:38:24;;;;;;;20.20;11.32;;;;;;;5.48;79.61;97894.78;5092491;28;20049;-79
2020/12/13 01:40:55;;;;;;;20.15;12.90;;;;;;;5.51;79.34;97892.41;5092552;28;20036;-84
2020/12/13 01:43:20;;;;;;;19.70;11.52;;;;;;;5.49;79.19;97899.03;5092676;28;20039;-82
2020/12/13 01:45:45;;;;;;;24.33;11.77;;;;;;;5.54;79.58;97905.13;5090170;28;20032;-81
2020/12/13 01:48:11;;;;;;;20.77;12.38;;;;;;;5.56;79.54;97900.31;5072341;28;20194;-80
2020/12/13 01:50:57;;;;;;;20.13;11.45;;;;;;;5.54;79.49;97897.16;5072087;28;20028;-82
2020/12/13 01:53:26;;;;;;;17.73;11.35;;;;;;;5.58;79.09;97902.72;5073894;28;20416;-86
2020/12/13 01:55:57;;;;;;;18.92;10.80;;;;;;;5.61;79.03;97908.28;5092254;28;20073;-86
2020/12/13 01:58:30;;;;;;;18.52;11.05;;;;;;;5.61;79.27;97889.72;5092419;28;20045;-87
2020/12/13 02:00:58;;;;;;;18.20;9.68;;;;;;;5.62;79.49;97895.81;5090980;28;20042;-87
2020/12/13 02:03:28;;;;;;;17.05;9.50;;;;;;;5.64;79.21;97883.06;5091977;28;20128;-84
2020/12/13 02:06:00;;;;;;;16.08;9.02;;;;;;;5.64;78.78;97891.03;5092193;28;20181;-79
2020/12/13 02:08:36;;;;;;;18.35;9.05;;;;;;;5.64;78.72;97890.22;5092282;28;20027;-79
2020/12/13 02:11:02;;;;;;;11.02;8.35;;;;;;;5.59;78.93;97880.41;5092227;28;20032;-81
2020/12/13 02:13:27;;;;;;;11.98;7.20;;;;;;;5.55;79.09;97871.44;5091996;28;20704;-79
2020/12/13 02:15:53;;;;;;;11.88;7.53;;;;;;;5.58;78.80;97881.50;5089575;28;20035;-81
2020/12/13 02:18:18;;;;;;;11.88;7.20;;;;;;;5.54;79.10;97875.16;5073581;28;20408;-83
2020/12/13 02:20:43;;;;;;;11.95;7.63;;;;;;;5.56;79.30;97887.06;5071638;28;20400;-84
2020/12/13 02:23:09;;;;;;;12.25;7.82;;;;;;;5.56;79.19;97881.75;5071484;28;20086;-83
2020/12/13 02:25:35;;;;;;;11.82;6.93;;;;;;;5.60;79.10;97874.88;5082142;28;20040;-83
2020/12/13 02:28:02;;;;;;;8.30;5.68;;;;;;;5.59;79.57;97878.56;5087892;28;20111;-84
2020/12/13 02:30:27;;;;;;;9.20;5.13;;;;;;;5.61;79.18;97881.75;5078283;28;20368;-86
2020/12/13 02:32:53;;;;;;;9.80;5.18;;;;;;;5.63;79.56;97884.13;5073921;28;20028;-87
2020/12/13 02:35:18;;;;;;;7.28;4.97;;;;;;;5.64;79.48;97876.97;5071887;28;20078;-88
2020/12/13 02:37:43;;;;;;;8.50;4.97;;;;;;;5.67;79.59;97873.78;5084479;28;20036;-87
2020/12/13 02:40:09;;;;;;;7.90;4.72;;;;;;;5.68;79.63;97888.63;5091468;28;20537;-86
2020/12/13 02:42:34;;;;;;;8.60;5.55;;;;;;;5.71;79.69;97891.53;5091121;28;20490;-85
2020/12/13 02:45:01;;;;;;;9.90;5.80;;;;;;;5.77;79.90;97895.75;5090986;28;20063;-84
2020/12/13 02:47:27;;;;;;;9.05;6.32;;;;;;;5.76;79.57;97890.69;5091563;28;20055;-83
2020/12/13 02:49:53;;;;;;;10.02;6.70;;;;;;;5.76;79.92;97885.38;5091196;28;20636;-81
2020/12/13 02:52:18;;;;;;;13.60;6.00;;;;;;;5.78;80.37;97891.22;5091206;28;20028;-82
2020/12/13 02:54:44;;;;;;;9.70;5.63;;;;;;;5.71;80.51;97878.28;5084766;28;20027;-83
2020/12/13 02:57:09;;;;;;;11.13;6.65;;;;;;;5.84;80.73;97905.28;5085494;28;20020;-87
2020/12/13 02:59:34;;;;;;;10.95;6.18;;;;;;;5.80;80.89;97899.72;5090728;28;20031;-87
2020/12/13 03:02:00;;;;;;;10.38;6.43;;;;;;;5.83;81.13;97891.19;5091301;28;20028;-85
2020/12/13 03:04:25;;;;;;;10.10;7.40;;;;;;;5.85;80.91;97888.28;5091077;28;20502;-84
2020/12/13 03:06:51;;;;;;;9.45;7.50;;;;;;;5.85;80.88;97882.97;5090610;28;20077;-83
2020/12/13 03:09:16;;;;;;;13.10;9.20;;;;;;;5.87;81.17;97886.13;5081942;28;20020;-84
2020/12/13 03:11:41;;;;;;;13.07;8.55;;;;;;;5.89;80.89;97886.66;5074977;28;20066;-86
2020/12/13 03:14:07;;;;;;;15.35;9.63;;;;;;;5.92;80.83;97886.91;5070655;28;20025;-86
2020/12/13 03:16:32;;;;;;;15.60;9.48;;;;;;;5.92;80.75;97886.13;5071229;28;20423;-86
2020/12/13 03:18:58;;;;;;;10.43;6.78;;;;;;;5.87;80.94;97888.78;5070613;28;20020;-84
2020/12/13 03:21:23;;;;;;;12.23;7.43;;;;;;;5.80;80.65;97896.25;5079510;28;20026;-86
2020/12/13 03:23:49;;;;;;;9.70;7.32;;;;;;;5.66;81.00;97888.09;5090625;28;20214;-87
2020/12/13 03:26:14;;;;;;;13.25;9.52;;;;;;;5.73;80.88;97893.91;5083648;28;20028;-81
2020/12/13 03:28:39;;;;;;;14.30;9.75;;;;;;;5.71;80.19;97903.97;5070186;28;20036;-84
2020/12/13 03:31:05;;;;;;;16.90;10.02;;;;;;;5.70;80.37;97892.59;5071536;28;20120;-84
2020/12/13 03:33:30;;;;;;;17.08;10.55;;;;;;;5.69;80.14;97895.50;5070442;28;20032;-87
2020/12/13 03:35:57;;;;;;;24.70;11.13;;;;;;;5.73;80.22;97901.88;5070457;28;20032;-86
2020/12/13 03:38:22;;;;;;;18.48;10.48;;;;;;;5.70;80.16;97895.25;5070286;28;20032;-86
2020/12/13 03:40:48;;;;;;;12.13;8.63;;;;;;;5.69;79.94;97887.53;5084371;28;20113;-85
2020/12/13 03:43:13;;;;;;;14.25;7.80;;;;;;;5.69;79.62;97891.00;5087792;28;20125;-89
2020/12/13 03:45:39;;;;;;;11.20;7.18;;;;;;;5.68;79.84;97894.72;5076403;28;20024;-84
2020/12/13 03:48:04;;;;;;;12.75;7.20;;;;;;;5.70;80.28;97883.81;5090381;28;20028;-88
2020/12/13 03:50:38;;;;;;;11.90;7.07;;;;;;;5.67;79.59;97885.16;5090051;28;20036;-87
2020/12/13 03:53:21;;;;;;;10.55;6.90;;;;;;;5.69;79.82;97898.16;5090060;28;20031;-88
2020/12/13 03:55:47;;;;;;;9.20;6.40;;;;;;;5.68;79.97;97893.94;5089738;28;20032;-86
2020/12/13 03:58:13;;;;;;;11.60;7.18;;;;;;;5.64;79.71;97893.69;5089867;28;20086;-84
2020/12/13 04:00:38;;;;;;;9.70;6.40;;;;;;;5.60;79.59;97892.63;5090066;28;20042;-87
2020/12/13 04:03:04;;;;;;;9.75;6.93;;;;;;;5.62;79.50;97893.16;5090038;28;20043;-86
2020/12/13 04:05:31;;;;;;;12.88;6.97;;;;;;;5.57;79.53;97901.13;5081065;28;20123;-86
2020/12/13 04:07:56;;;;;;;11.98;6.75;;;;;;;5.64;79.91;97908.78;5069542;28;20078;-83
2020/12/13 04:10:22;;;;;;;11.63;6.10;;;;;;;5.60;79.74;97895.28;5069744;28;20748;-83
2020/12/13 04:12:47;;;;;;;13.50;6.57;;;;;;;5.58;79.82;97900.06;5069821;28;20501;-84
2020/12/13 04:15:14;;;;;;;9.38;6.35;;;;;;;5.52;79.29;97901.94;5069542;28;20021;-81
2020/12/13 04:17:40;;;;;;;11.32;6.90;;;;;;;5.39;80.49;97898.00;5085980;28;20040;-81
2020/12/13 04:20:07;;;;;;;9.00;5.85;;;;;;;5.36;80.81;97908.34;5089635;28;20428;-82
2020/12/13 04:22:33;;;;;;;11.02;6.10;;;;;;;5.26;81.18;97904.69;5089635;28;20041;-81
2020/12/13 04:24:58;;;;;;;10.00;5.95;;;;;;;5.05;80.96;97893.31;5089405;28;20087;-82
2020/12/13 04:27:24;;;;;;;10.55;6.57;;;;;;;5.18;81.55;97923.78;5088273;28;20044;-78
2020/12/13 04:29:50;;;;;;;16.58;7.40;;;;;;;5.16;81.56;97931.19;5087891;28;20035;-78
2020/12/13 04:32:16;;;;;;;13.43;6.75;;;;;;;5.10;81.75;97930.41;5089801;28;20089;-79
2020/12/13 04:34:41;;;;;;;18.27;6.70;;;;;;;5.02;82.08;97928.31;5089120;28;20412;-79
2020/12/13 04:37:07;;;;;;;12.82;6.85;;;;;;;4.96;82.20;97932.03;5089237;28;20071;-87
2020/12/13 04:39:34;;;;;;;17.17;7.53;;;;;;;4.93;83.05;97930.69;5089421;28;20028;-86
2020/12/13 04:42:03;;;;;;;20.00;7.30;;;;;;;4.84;83.47;97920.91;5089181;28;20095;-86
2020/12/13 04:44:30;;;;;;;13.48;6.90;;;;;;;4.99;83.76;97943.94;5089464;28;20039;-85
2020/12/13 04:47:01;;;;;;;12.45;6.65;;;;;;;5.01;83.52;97952.41;5080351;28;20032;-87
2020/12/13 04:49:29;;;;;;;13.88;6.70;;;;;;;4.94;84.24;97940.25;5069558;28;20028;-87
2020/12/13 04:51:58;;;;;;;16.58;5.47;;;;;;;5.00;84.00;97948.19;5080140;28;20440;-85
2020/12/13 04:54:24;;;;;;;8.80;4.90;;;;;;;4.86;84.07;97927.53;5089460;28;20512;-84
2020/12/13 04:56:52;;;;;;;12.77;6.05;;;;;;;5.01;84.64;97955.84;5089000;28;20032;-84
2020/12/13 04:59:18;;;;;;;13.23;6.45;;;;;;;5.05;84.59;97954.25;5078702;28;20032;-87
2020/12/13 05:01:47;;;;;;;12.85;6.60;;;;;;;5.09;84.81;97955.31;5069363;28;20029;-85
2020/12/13 05:04:15;;;;;;;11.40;5.45;;;;;;;5.14;84.11;97957.19;5069453;28;20029;-84
2020/12/13 05:06:41;;;;;;;11.68;4.85;;;;;;;5.12;84.50;97949.47;5073092;28;20119;-85
2020/12/13 05:09:09;;;;;;;15.63;6.00;;;;;;;5.18;84.77;97955.56;5092566;28;20042;-89
2020/12/13 05:11:34;;;;;;;18.73;10.13;;;;;;;5.22;84.78;97955.84;5093207;28;20039;-86
2020/12/13 05:14:02;;;;;;;30.35;12.25;;;;;;;5.24;83.95;97956.38;5092895;28;20114;-87
2020/12/13 05:16:27;;;;;;;23.47;10.43;;;;;;;5.20;84.36;97947.34;5086344;28;20528;-85
2020/12/13 05:18:53;;;;;;;27.73;10.93;;;;;;;5.16;84.01;97941.00;5083190;28;20274;-87
2020/12/13 05:21:23;;;;;;;25.90;10.93;;;;;;;5.24;84.23;97948.41;5092718;28;20059;-85
2020/12/13 05:23:49;;;;;;;26.23;11.05;;;;;;;5.26;84.58;97940.97;5092598;28;20047;-84
2020/12/13 05:26:16;;;;;;;29.40;11.52;;;;;;;5.30;83.81;97950.00;5092833;28;20032;-85
2020/12/13 05:28:48;;;;;;;25.58;11.07;;;;;;;5.36;84.20;97958.72;5081617;28;20032;-87
2020/12/13 05:31:19;;;;;;;24.23;9.32;;;;;;;5.39;84.03;97958.19;5084957;28;20071;-84
2020/12/13 05:33:49;;;;;;;23.25;9.90;;;;;;;5.43;84.15;97965.34;5072432;28;20449;-85
2020/12/13 05:36:17;;;;;;;31.48;13.60;;;;;;;5.49;84.24;97978.59;5075807;28;20032;-86
2020/12/13 05:38:43;;;;;;;21.88;10.80;;;;;;;5.48;84.42;97980.47;5092470;28;20056;-87
2020/12/13 05:41:11;;;;;;;20.75;10.82;;;;;;;5.53;84.31;97987.59;5086191;28;20040;-86
2020/12/13 05:51:40;;;;;;;20.95;10.23;;;;;;;5.64;84.33;97983.06;5061178;28;20040;-85
2020/12/13 05:54:24;;;;;;;17.45;10.13;;;;;;;5.73;84.50;97995.50;5084109;28;20028;-85
2020/12/13 05:56:54;;;;;;;28.20;12.60;;;;;;;5.72;84.25;97982.50;5072444;28;20166;-87
2020/12/13 05:59:21;;;;;;;23.60;11.68;;;;;;;5.82;83.62;97994.94;5086741;28;20084;-87
2020/12/13 06:01:47;;;;;;;35.10;15.18;;;;;;;5.83;83.76;97996.53;5092587;28;20028;-86
2020/12/13 06:04:15;;;;;;;32.22;14.70;;;;;;;5.81;83.31;97991.50;5092232;28;20051;-86
2020/12/13 06:06:44;;;;;;;35.25;14.23;;;;;;;5.77;83.30;97985.94;5092150;28;20499;-83
2020/12/13 06:09:13;;;;;;;27.30;12.73;;;;;;;5.81;83.25;97991.50;5092031;28;20078;-86
2020/12/13 06:11:47;;;;;;;20.77;12.15;;;;;;;5.88;83.15;98005.28;5085205;28;20483;-86
2020/12/13 06:14:17;;;;;;;28.45;13.90;;;;;;;5.89;82.33;98006.84;5089848;28;20480;-86
2020/12/13 06:16:43;;;;;;;30.48;14.20;;;;;;;5.87;82.90;98000.22;5071561;28;20115;-86
2020/12/13 06:19:11;;;;;;;24.30;12.70;;;;;;;5.81;83.31;97993.34;5071586;28;20033;-84
2020/12/13 06:21:38;;;;;;;24.30;13.55;;;;;;;5.84;82.84;98003.44;5081982;28;20028;-84
2020/12/13 06:24:06;;;;;;;21.70;12.23;;;;;;;5.90;82.97;98005.00;5078615;28;20053;-85
2020/12/13 06:26:32;;;;;;;22.50;12.00;;;;;;;5.93;82.56;98004.44;5084058;28;20429;-85
2020/12/13 06:28:57;;;;;;;21.35;11.45;;;;;;;5.98;82.45;98007.13;5091002;28;20046;-85
2020/12/13 06:31:23;;;;;;;25.23;11.90;;;;;;;6.02;82.25;98013.50;5076448;28;20431;-85
2020/12/13 06:33:49;;;;;;;18.33;10.88;;;;;;;6.04;82.10;98007.91;5085392;28;20054;-84
2020/12/13 06:36:15;;;;;;;27.00;12.88;;;;;;;6.06;81.94;98011.09;5079836;28;20024;-84
2020/12/13 06:38:41;;;;;;;23.10;11.60;;;;;;;6.11;81.63;98013.72;5091103;28;20047;-86
2020/12/13 06:41:08;;;;;;;22.98;11.52;;;;;;;6.13;81.55;98016.91;5078294;28;20527;-85
2020/12/13 06:43:57;;;;;;;27.30;12.45;;;;;;;6.17;81.61;98012.63;5090895;28;20480;-86
2020/12/13 06:46:25;;;;;;;16.48;10.02;;;;;;;6.00;81.03;97988.28;5101609;28;20039;-85
2020/12/13 06:48:51;;;;;;;18.63;10.95;;;;;;;6.21;80.79;98021.66;5091250;28;20039;-86
2020/12/13 06:51:18;;;;;;;17.77;9.77;;;;;;;6.22;80.76;98014.47;5084594;28;20033;-85
2020/12/13 06:53:49;;;;;;;18.03;10.47;;;;;;;6.24;80.60;98010.47;5083275;28;20043;-85
2020/12/13 06:56:15;;;;;;;14.75;9.80;;;;;;;6.30;80.88;98026.38;5088765;28;20024;-85
2020/12/13 06:58:45;;;;;;;15.43;8.95;;;;;;;6.27;80.47;98011.78;5077458;28;20070;-86
2020/12/13 07:01:16;;;;;;;14.73;9.60;;;;;;;6.31;80.74;98014.69;5077640;28;20101;-83
2020/12/13 07:03:41;;;;;;;20.35;8.73;;;;;;;6.30;80.06;98000.63;5080370;28;20119;-82
2020/12/13 07:06:08;;;;;;;16.15;10.13;;;;;;;6.34;79.89;97998.22;5070675;28;20671;-82
2020/12/13 07:08:35;;;;;;;19.27;10.35;;;;;;;6.38;80.28;98002.72;5088515;28;20442;-82
2020/12/13 07:11:01;;;;;;;20.13;9.77;;;;;;;6.42;80.21;98005.63;5090035;28;20063;-81
2020/12/13 07:13:29;;;;;;;18.25;9.27;;;;;;;6.44;80.55;98008.00;5090207;28;20456;-81
2020/12/13 07:16:13;;;;;;;18.20;10.27;;;;;;;6.41;80.49;97999.50;5084899;28;20115;-82
2020/12/13 07:18:45;;;;;;;15.27;9.82;;;;;;;6.51;79.72;98016.47;5089941;28;20055;-84
2020/12/13 07:21:13;;;;;;;17.48;8.90;;;;;;;6.52;80.62;98012.75;5080037;28;20086;-84
2020/12/13 07:23:39;;;;;;;19.08;10.10;;;;;;;6.48;80.15;98009.84;5071937;28;20449;-81
2020/12/13 07:26:05;;;;;;;20.88;9.85;;;;;;;6.50;79.93;98014.88;5070613;28;20029;-80
2020/12/13 07:28:31;;;;;;;18.98;9.55;;;;;;;6.51;80.01;98014.59;5078386;28;20035;-80
2020/12/13 07:31:03;;;;;;;18.40;9.43;;;;;;;6.55;80.41;98018.28;5086027;28;20038;-82
2020/12/13 07:33:29;;;;;;;20.73;12.20;;;;;;;6.57;80.02;98012.69;5089689;28;20035;-82
2020/12/13 07:35:55;;;;;;;26.70;15.10;;;;;;;6.60;80.28;98020.09;5075078;28;20017;-83
2020/12/13 07:38:22;;;;;;;36.30;17.42;;;;;;;6.60;79.72;98019.31;5074769;28;20041;-86
2020/12/13 07:40:48;;;;;;;26.27;14.13;;;;;;;6.65;80.06;98024.59;5070563;28;20032;-86
2020/12/13 07:43:15;;;;;;;28.20;15.95;;;;;;;6.68;80.29;98034.69;5075032;28;20145;-81
2020/12/13 07:45:40;;;;;;;28.42;15.63;;;;;;;6.69;80.88;98036.28;5081044;28;20028;-81
2020/12/13 07:48:06;;;;;;;25.92;15.20;;;;;;;6.68;80.27;98032.03;5087436;28;20032;-80
2020/12/13 07:50:42;;;;;;;25.45;12.95;;;;;;;6.71;79.97;98034.13;5089734;28;20020;-78
2020/12/13 07:53:07;;;;;;;22.33;14.15;;;;;;;6.72;80.13;98028.53;5069765;28;20028;-80
2020/12/13 07:55:33;;;;;;;26.88;15.98;;;;;;;6.78;79.92;98039.94;5076252;28;20506;-86
2020/12/13 07:57:58;;;;;;;36.47;18.05;;;;;;;6.78;79.90;98039.94;5090560;28;20113;-85
2020/12/13 08:00:24;;;;;;;34.63;17.85;;;;;;;6.84;79.71;98046.03;5087233;28;20027;-86
2020/12/13 08:02:49;;;;;;;38.42;18.85;;;;;;;6.83;79.46;98050.53;5070001;28;20024;-86
2020/12/13 08:05:27;;;;;;;24.80;13.13;;;;;;;6.76;79.15;98038.63;5070983;28;20039;-85
2020/12/13 08:07:58;;;;;;;22.77;11.98;;;;;;;6.84;79.53;98068.06;5085454;28;20034;-86
2020/12/13 08:10:23;;;;;;;19.27;11.02;;;;;;;6.83;79.36;98063.03;5069854;28;20044;-86
2020/12/13 08:12:52;;;;;;;21.27;11.65;;;;;;;6.84;79.07;98070.72;5079237;28;20020;-85
2020/12/13 08:15:18;;;;;;;14.88;9.40;;;;;;;6.84;78.99;98067.28;5088243;28;20067;-85
2020/12/13 08:17:44;;;;;;;19.92;11.20;;;;;;;6.88;79.62;98081.59;5083849;28;20081;-84
2020/12/13 08:20:14;;;;;;;21.33;12.85;;;;;;;6.92;78.85;98079.19;5074432;28;20016;-86
2020/12/13 08:22:41;;;;;;;18.83;11.63;;;;;;;6.93;79.08;98073.59;5089381;28;20092;-85
2020/12/13 08:25:07;;;;;;;12.75;8.40;;;;;;;6.89;78.41;98068.03;5081988;28;20136;-86
2020/12/13 08:27:39;;;;;;;18.67;9.60;;;;;;;6.88;78.50;98084.25;5090074;28;20471;-86
2020/12/13 08:30:06;;;;;;;22.23;10.15;;;;;;;6.76;78.82;98065.97;5089369;28;20376;-87
2020/12/13 08:32:33;;;;;;;23.25;11.40;;;;;;;6.71;78.84;98071.31;5089626;28;20559;-85
2020/12/13 08:35:18;;;;;;;22.33;12.00;;;;;;;6.69;80.09;98073.47;5074200;28;20028;-86
2020/12/13 08:38:13;;;;;;;17.75;10.13;;;;;;;6.64;80.28;98060.19;5088820;28;20032;-84
2020/12/13 08:40:40;;;;;;;18.10;11.05;;;;;;;6.57;79.86;98061.31;5057454;28;20040;-87
2020/12/13 08:43:07;;;;;;;19.70;10.20;;;;;;;6.46;80.32;98067.75;5089298;28;20035;-86
2020/12/13 08:45:33;;;;;;;22.90;12.25;;;;;;;6.37;80.67;98062.22;5094121;28;20043;-86
2020/12/13 08:48:00;;;;;;;23.60;12.98;;;;;;;6.37;80.53;98066.72;5093804;28;20058;-82
2020/12/13 08:50:26;;;;;;;18.55;11.07;;;;;;;6.36;80.58;98071.22;5091054;28;20020;-82
2020/12/13 08:52:52;;;;;;;22.73;12.25;;;;;;;6.31;80.68;98070.44;5106926;28;20127;-76
2020/12/13 08:55:27;;;;;;;22.02;11.50;;;;;;;6.28;81.11;98061.16;5106536;28;20119;-79
2020/12/13 08:58:00;;;;;;;20.88;9.55;;;;;;;6.29;81.38;98061.97;5079972;28;20525;-77
2020/12/13 09:00:27;;;;;;;19.42;9.43;;;;;;;6.25;81.35;98062.50;5081722;28;20029;-76
2020/12/13 09:03:02;;;;;;;19.00;10.70;;;;;;;6.24;82.21;98068.09;5094279;28;20115;-77
2020/12/13 09:05:31;;;;;;;19.25;10.02;;;;;;;6.27;81.86;98072.84;5086848;28;20042;-74
2020/12/13 09:07:59;;;;;;;17.77;11.00;;;;;;;6.25;82.00;98067.03;5080256;28;20099;-73
2020/12/13 09:10:26;;;;;;;20.42;11.15;;;;;;;6.31;81.58;98057.97;5078266;28;20101;-78
2020/12/13 09:12:51;;;;;;;19.52;11.02;;;;;;;6.25;81.70;98057.19;5093165;28;20028;-79
2020/12/13 09:15:19;;;;;;;21.30;10.85;;;;;;;6.25;81.93;98051.09;5093211;28;20412;-78
2020/12/13 09:17:59;;;;;;;20.55;11.18;;;;;;;6.25;81.99;98053.75;5095106;28;20032;-77
2020/12/13 09:20:38;;;;;;;18.60;11.68;;;;;;;6.24;81.94;98052.16;5091821;28;20404;-75
2020/12/13 09:23:19;;;;;;;18.65;10.40;;;;;;;6.24;82.19;98060.13;5089607;28;20572;-76
2020/12/13 09:25:46;;;;;;;29.92;12.80;;;;;;;6.20;82.68;98041.28;5091744;28;20040;-77
2020/12/13 09:28:15;;;;;;;23.90;11.85;;;;;;;6.20;82.49;98051.09;5092311;28;20032;-74
2020/12/13 09:30:42;;;;;;;19.42;11.55;;;;;;;6.17;82.64;98046.34;5081342;28;20024;-76
2020/12/13 09:33:08;;;;;;;21.50;12.05;;;;;;;6.19;82.57;98052.16;5087270;28;20029;-75
2020/12/13 09:35:34;;;;;;;22.63;12.07;;;;;;;6.21;83.46;98039.44;5079035;28;20400;-75
2020/12/13 09:38:05;;;;;;;22.27;12.13;;;;;;;6.27;83.07;98056.91;5091935;28;20028;-75
2020/12/13 09:40:32;;;;;;;22.77;12.57;;;;;;;6.23;82.51;98054.00;5092799;28;20036;-76
2020/12/13 09:42:58;;;;;;;28.90;14.27;;;;;;;6.29;83.15;98051.38;5093645;28;20047;-80
2020/12/13 09:45:24;;;;;;;20.75;11.70;;;;;;;6.29;83.13;98059.31;5092711;28;20023;-77
2020/12/13 09:47:49;;;;;;;24.42;13.68;;;;;;;6.39;83.22;98053.97;5091933;28;20138;-76
2020/12/13 09:50:18;;;;;;;25.33;12.75;;;;;;;6.42;82.97;98050.78;5092963;28;20452;-75
2020/12/13 09:52:43;;;;;;;;;;;;;;;6.48;83.49;98046.22;5092981;28;20036;-78
2020/12/13 09:55:09;;;;;;;29.90;14.70;;;;;;;6.50;83.26;98033.47;5090661;28;19923;-76
2020/12/13 09:57:36;;;;;;;22.10;11.93;;;;;;;6.52;83.79;98020.72;5093726;28;20035;-76
2020/12/13 10:00:04;;;;;;;22.77;12.38;;;;;;;6.61;83.90;98026.22;5093286;28;20107;-75
2020/12/13 10:02:32;;;;;;;22.67;11.73;;;;;;;6.65;83.62;98022.75;5093158;28;20112;-80
2020/12/13 10:04:58;;;;;;;;;;;;;;;6.73;83.45;98022.16;5076916;28;20031;-82
2020/12/13 10:09:55;;;;;;;31.13;13.23;;;;;;;6.83;83.61;98012.53;5073356;28;20031;-79
2020/12/13 10:12:22;;;;;;;32.45;13.38;;;;;;;6.92;83.13;98018.06;5071992;28;20024;-81
2020/12/13 10:14:48;;;;;;;25.50;13.50;;;;;;;6.96;83.25;98014.56;5071796;28;20173;-82
2020/12/13 10:17:13;;;;;;;24.88;13.15;;;;;;;7.00;82.71;98010.28;5071626;28;20127;-79
2020/12/13 10:19:39;;;;;;;20.63;11.73;;;;;;;7.01;82.93;98009.22;5074846;28;20036;-78
2020/12/13 10:22:04;;;;;;;21.95;11.90;;;;;;;7.05;82.87;98010.25;5091401;28;20036;-79
2020/12/13 10:24:29;;;;;;;20.17;11.00;;;;;;;7.12;82.46;98004.59;5091627;28;20059;-75
2020/12/13 10:26:55;;;;;;;19.83;10.23;;;;;;;7.15;82.46;98009.38;5091883;28;20028;-77
2020/12/13 10:29:21;;;;;;;20.02;11.82;;;;;;;7.20;81.82;98003.19;5091612;28;20115;-76
2020/12/13 10:31:46;;;;;;;13.98;9.13;;;;;;;7.24;81.17;98001.59;5091932;28;20434;-76
2020/12/13 10:34:14;;;;;;;21.20;9.18;;;;;;;7.29;80.71;98004.19;5091540;28;20028;-77
2020/12/13 10:36:40;;;;;;;14.38;8.50;;;;;;;7.34;80.25;98009.47;5091636;28;20027;-77
2020/12/13 10:39:08;;;;;;;14.75;9.35;;;;;;;7.37;79.62;98010.75;5086713;28;20571;-87
2020/12/13 10:41:34;;;;;;;15.75;9.40;;;;;;;7.41;79.78;98016.31;5090572;28;20062;-82
2020/12/13 10:44:00;;;;;;;14.98;8.38;;;;;;;7.43;78.87;98009.66;5090903;28;20457;-81
2020/12/13 10:46:29;;;;;;;14.95;8.00;;;;;;;7.40;79.13;97988.13;5090168;28;20024;-87
2020/12/13 10:48:55;;;;;;;15.13;8.82;;;;;;;7.49;78.82;97997.09;5095811;28;20027;-85
2020/12/13 10:51:22;;;;;;;14.13;8.50;;;;;;;7.56;78.87;98007.44;5102291;28;20480;-80
2020/12/13 10:53:48;;;;;;;12.70;7.20;;;;;;;7.55;79.05;97989.88;5109934;28;20065;-79
2020/12/13 10:56:14;;;;;;;15.35;8.05;;;;;;;7.63;78.24;97995.38;5109254;28;20031;-81
2020/12/13 10:58:43;;;;;;;11.52;7.50;;;;;;;7.65;77.99;97990.56;5092217;28;20440;-78
2020/12/13 11:01:10;;;;;;;14.40;7.68;;;;;;;7.62;78.24;97985.78;5090326;28;20115;-80
2020/12/13 11:03:36;;;;;;;12.90;7.85;;;;;;;7.72;78.57;97992.09;5090433;28;20409;-79
2020/12/13 11:06:01;;;;;;;11.13;6.65;;;;;;;7.72;78.42;97995.53;5090787;28;20024;-79
2020/12/13 11:08:27;;;;;;;11.30;7.10;;;;;;;7.76;78.48;97985.13;5091115;28;20465;-78
2020/12/13 11:10:52;;;;;;;11.13;7.35;;;;;;;7.80;78.59;97989.59;5091095;28;20058;-78
2020/12/13 11:13:21;;;;;;;15.18;8.13;;;;;;;7.80;78.23;97986.94;5090596;28;20503;-78
2020/12/13 11:15:48;;;;;;;11.07;6.68;;;;;;;7.84;78.32;98000.47;5090943;28;20556;-83
2020/12/13 11:18:14;;;;;;;11.23;7.00;;;;;;;7.69;78.07;97969.50;5079283;28;20455;-81
2020/12/13 11:20:39;;;;;;;8.52;6.28;;;;;;;7.85;77.58;98000.19;5087243;28;20091;-86
2020/12/13 11:23:05;;;;;;;10.75;6.57;;;;;;;7.83;77.83;97999.66;5084224;28;20047;-76
2020/12/13 11:25:31;;;;;;;10.95;6.88;;;;;;;7.83;77.53;97993.56;5073545;28;20040;-77
2020/12/13 11:27:57;;;;;;;12.48;7.55;;;;;;;7.87;77.88;97994.56;5082357;28;20048;-76
2020/12/13 11:30:23;;;;;;;12.00;6.90;;;;;;;7.89;77.11;97989.75;5085978;28;20040;-79
2020/12/13 11:32:50;;;;;;;10.07;6.25;;;;;;;7.84;77.33;97990.59;5081239;28;20032;-74
2020/12/13 11:35:16;;;;;;;9.68;5.88;;;;;;;7.84;77.03;97982.63;5085596;28;20115;-81
2020/12/13 11:37:42;;;;;;;10.27;6.43;;;;;;;7.82;77.52;97979.47;5092169;28;20059;-72
2020/12/13 11:40:08;;;;;;;9.77;6.00;;;;;;;7.82;77.35;97968.00;5088990;28;20060;-74
2020/12/13 11:42:34;;;;;;;11.68;6.40;;;;;;;7.81;77.45;97977.88;5087822;28;20063;-74